Weather reports worldwide

Advertisment
Bala, United Kingdom (3409): temperature & dewpoint: 16.11.2017 05:00:00 - 22.11.2017 05:00:00 (GMT)Bala, United Kingdom (3409): wind speed & gusts: 16.11.2017 05:00:00 - 22.11.2017 05:00:00 (GMT)Bala, United Kingdom (3409): wind direction: 16.11.2017 05:00:00 - 22.11.2017 05:00:00 (GMT)Bala, United Kingdom (3409): reduced air pressure: 16.11.2017 05:00:00 - 22.11.2017 05:00:00 (GMT)Bala, United Kingdom (3409): sunshine duration: 16.11.2017 05:00:00 - 22.11.2017 05:00:00 (GMT)Bala, United Kingdom (3409): precipitation: 16.11.2017 05:00:00 - 22.11.2017 05:00:00 (GMT)
Date & Time tt [°C] td [°C] ff [km/h] ff [kn] fx [km/h] fx [kn] dd ppp [hPa] sd [min] rr [mm]
22.11.2017 05:00:00 12,7 10,7 34 18 61 33 SW 994,1 0 0,2
22.11.2017 04:00:00 13,0 11,8 31 17 61 33 SW 995,0 0 0,8
22.11.2017 03:00:00 12,7 12,1 28 15 - - SW 995,7 0 1,6
22.11.2017 02:00:00 11,9 11,6 16 9 - - WSW 997,0 0 5,0
22.11.2017 01:00:00 12,3 11,5 22 12 - - WSW 998,3 0 1,4
22.11.2017 00:00:00 12,3 11,6 26 14 50 27 SW 999,0 - 0,0
21.11.2017 23:00:00 12,5 11,8 28 15 46 25 SW 999,6 0 -
21.11.2017 22:00:00 12,6 12,1 26 14 - - SW 999,6 0 0,2
21.11.2017 21:00:00 12,6 12,1 26 14 - - SW 999,6 0 0,0
21.11.2017 20:00:00 12,4 11,9 24 13 - - SW 1000,1 0 0,0
21.11.2017 19:00:00 12,5 11,9 22 12 - - SW 1000,8 0 0,2
21.11.2017 18:00:00 12,7 12,2 28 15 - - WSW 1001,4 0 0,2
21.11.2017 17:00:00 12,7 11,8 26 14 46 25 SW 1001,0 0 1,2
21.11.2017 16:00:00 12,5 11,4 18 10 - - SW 1002,0 0 1,4
21.11.2017 15:00:00 12,5 11,5 18 10 - - SW 1003,0 0 2,0
21.11.2017 14:00:00 11,5 10,8 9 5 - - W 1004,4 0 1,2
21.11.2017 13:00:00 11,9 9,8 24 13 - - WSW 1005,6 6 0,0
21.11.2017 12:00:00 11,5 9,2 26 14 - - SW 1006,6 0 0,0
21.11.2017 11:00:00 11,1 8,7 29 16 - - SW 1007,3 0 0,0
21.11.2017 10:00:00 11,1 9,7 28 15 50 27 WSW 1007,8 0 -
21.11.2017 09:00:00 11,0 10,5 26 14 - - WSW 1008,5 0 0,0
21.11.2017 08:00:00 11,2 10,7 28 15 - - WSW 1008,6 0 0,2
21.11.2017 07:00:00 11,3 10,9 29 16 46 25 WSW 1008,8 0 0,0
21.11.2017 06:00:00 11,5 11,3 24 13 48 26 WSW 1008,9 0 0,4
21.11.2017 05:00:00 11,8 11,2 26 14 - - WSW 1009,1 0 0,2
21.11.2017 04:00:00 12,1 11,6 24 13 - - WSW 1009,1 0 0,8
21.11.2017 03:00:00 12,0 11,7 18 10 - - WSW 1009,5 0 1,2
21.11.2017 02:00:00 12,1 12,0 24 13 - - WSW 1009,7 0 0,0
21.11.2017 01:00:00 12,0 11,8 18 10 - - WSW 1010,1 0 0,2
21.11.2017 00:00:00 12,5 12,2 16 9 - - WSW 1010,3 - 0,8
20.11.2017 23:00:00 11,9 11,7 13 7 - - WSW 1010,3 0 0,6
20.11.2017 22:00:00 12,0 11,4 16 9 - - WSW 1010,4 0 0,2
20.11.2017 21:00:00 12,0 11,5 13 7 - - WSW 1010,7 0 0,2
20.11.2017 20:00:00 11,8 11,6 11 6 - - W 1010,9 0 0,0
20.11.2017 19:00:00 12,4 10,9 13 7 - - WSW 1011,1 0 0,0
20.11.2017 18:00:00 12,4 10,5 13 7 - - WSW 1011,0 0 0,0
20.11.2017 17:00:00 12,4 9,6 18 10 - - WSW 1011,0 0 0,0
20.11.2017 16:00:00 12,4 9,4 22 12 - - WSW 1010,9 0 -
20.11.2017 15:00:00 12,7 9,6 16 9 - - WSW 1011,0 0 0,0
20.11.2017 14:00:00 12,9 10,0 24 13 48 26 W 1010,9 0 0,0
20.11.2017 13:00:00 13,1 10,0 26 14 52 28 W 1010,9 0 0,0
20.11.2017 12:00:00 12,9 10,4 24 13 48 26 W 1011,0 0 0,0
20.11.2017 11:00:00 12,7 10,6 22 12 - - W 1011,3 0 0,2
20.11.2017 10:00:00 12,4 10,1 26 14 52 28 WSW 1011,5 0 0,0
20.11.2017 09:00:00 11,9 10,6 29 16 48 26 WSW 1011,7 0 1,0
20.11.2017 08:00:00 11,7 10,8 24 13 48 26 WSW 1011,6 0 0,8
20.11.2017 07:00:00 11,5 10,7 22 12 - - WSW 1011,6 0 0,6
20.11.2017 06:00:00 11,0 10,2 24 13 46 25 WSW 1012,2 0 -
20.11.2017 05:00:00 10,9 10,1 26 14 50 27 WSW 1012,7 0 1,2
20.11.2017 04:00:00 10,2 9,6 26 14 - - WSW 1013,5 0 0,6
20.11.2017 03:00:00 9,3 8,7 18 10 - - WSW 1014,6 0 1,4
20.11.2017 02:00:00 9,3 8,1 21 11 - - WSW 1015,7 0 0,6
20.11.2017 01:00:00 9,4 7,9 29 16 48 26 SW 1016,7 0 0,6
20.11.2017 00:00:00 9,5 8,4 28 15 48 26 WSW 1017,2 - 0,0
19.11.2017 23:00:00 9,3 8,5 16 9 - - SW 1018,2 0 0,0
19.11.2017 22:00:00 9,0 7,9 11 6 - - W 1019,4 0 0,0
19.11.2017 21:00:00 7,4 5,6 0 0 - - N 1020,3 0 -
19.11.2017 20:00:00 7,5 5,4 5 3 - - WSW 1021,2 0 0,0
19.11.2017 19:00:00 7,7 4,8 13 7 - - WSW 1021,5 0 0,0
19.11.2017 18:00:00 7,5 4,4 4 2 - - W 1021,9 0 0,0
19.11.2017 17:00:00 7,4 4,0 4 2 - - W 1022,2 0 0,0
19.11.2017 16:00:00 7,6 3,5 13 7 - - SW 1022,6 0 0,0
19.11.2017 15:00:00 7,7 3,2 11 6 - - SW 1023,0 0 0,0
19.11.2017 14:00:00 8,0 2,7 9 5 - - SW 1023,4 6 0,0
19.11.2017 13:00:00 7,6 2,8 9 5 - - WSW 1023,9 30 0,0
19.11.2017 12:00:00 8,3 2,8 9 5 - - SW 1024,2 60 0,0
19.11.2017 11:00:00 6,9 2,9 5 3 - - SW 1024,6 42 0,0
19.11.2017 10:00:00 5,5 3,2 4 2 - - W 1024,7 0 0,0
19.11.2017 09:00:00 4,2 3,0 2 1 - - NW 1024,3 0 0,0
19.11.2017 08:00:00 4,3 2,8 4 2 - - W 1024,0 0 -
19.11.2017 07:00:00 5,4 2,8 5 3 - - WSW 1023,8 0 0,0
19.11.2017 06:00:00 5,2 2,9 5 3 - - WSW 1023,6 0 0,0
19.11.2017 05:00:00 5,5 3,0 4 2 - - WSW 1023,6 0 0,0
19.11.2017 04:00:00 5,5 2,8 5 3 - - WSW 1023,4 0 0,0
19.11.2017 03:00:00 5,8 2,9 5 3 - - WSW 1023,6 0 0,0
19.11.2017 02:00:00 6,0 2,9 4 2 - - SW 1023,2 0 0,0
19.11.2017 01:00:00 6,0 2,7 9 5 - - WSW 1023,2 0 0,0
19.11.2017 00:00:00 5,9 2,8 11 6 - - WSW 1022,9 - 0,0
18.11.2017 23:00:00 3,1 2,3 2 1 - - WSW 1023,0 0 0,0
18.11.2017 22:00:00 3,4 2,5 2 1 - - N 1022,8 0 0,0
18.11.2017 21:00:00 3,9 2,6 2 1 - - E 1022,9 0 0,0
18.11.2017 20:00:00 5,0 2,5 5 3 - - E 1022,5 0 0,0
18.11.2017 19:00:00 6,6 2,8 9 5 - - W 1022,2 0 0,0
18.11.2017 18:00:00 7,3 3,1 9 5 - - W 1022,0 0 0,0
18.11.2017 17:00:00 7,4 4,1 9 5 - - W 1021,7 0 0,0
18.11.2017 16:00:00 8,1 4,7 9 5 - - W 1021,5 0 0,0
18.11.2017 15:00:00 8,4 4,6 11 6 - - W 1021,7 0 0,0
18.11.2017 14:00:00 8,3 4,6 9 5 - - W 1021,9 6 0,0
18.11.2017 13:00:00 8,7 4,8 13 7 - - W 1021,8 18 0,0
18.11.2017 12:00:00 8,0 5,2 11 6 - - W 1022,1 0 0,0
18.11.2017 11:00:00 7,8 5,2 11 6 - - WSW 1022,6 0 0,0
18.11.2017 10:00:00 7,6 4,5 8 4 - - WSW 1022,8 0 0,0
18.11.2017 09:00:00 7,6 5,2 5 3 - - W 1022,7 0 0,0
18.11.2017 08:00:00 8,2 6,3 8 4 - - W 1022,2 0 0,0
18.11.2017 07:00:00 8,1 6,1 5 3 - - W 1022,2 0 0,0
18.11.2017 06:00:00 8,3 6,5 13 7 - - W 1022,2 0 0,0
18.11.2017 05:00:00 8,1 6,3 16 9 - - WSW 1022,7 0 0,0
18.11.2017 04:00:00 6,9 5,7 13 7 - - WSW 1023,6 0 0,0
18.11.2017 03:00:00 6,9 4,5 18 10 - - WSW 1024,2 0 0,0
18.11.2017 02:00:00 7,0 3,1 22 12 - - WSW 1024,6 0 0,0
18.11.2017 01:00:00 7,0 2,9 16 9 - - WSW 1025,1 0 0,0
18.11.2017 00:00:00 6,6 2,6 16 9 - - W 1025,8 - 0,0
17.11.2017 23:00:00 6,0 2,3 13 7 - - WSW 1026,7 0 0,0
17.11.2017 22:00:00 6,2 2,3 15 8 - - WSW 1026,5 0 0,0
17.11.2017 21:00:00 6,2 1,9 13 7 - - SW 1027,0 0 0,0
17.11.2017 20:00:00 6,2 1,6 13 7 - - SW 1027,3 0 0,0
17.11.2017 19:00:00 6,1 2,1 11 6 - - WSW 1027,5 0 0,0
17.11.2017 18:00:00 6,1 1,5 11 6 - - W 1027,9 0 0,0
17.11.2017 17:00:00 6,2 1,2 11 6 - - WSW 1028,0 0 0,0
17.11.2017 16:00:00 6,8 1,2 13 7 - - W 1028,2 0 0,0
17.11.2017 15:00:00 7,2 1,2 11 6 - - WSW 1028,1 6 0,0
17.11.2017 14:00:00 7,3 1,6 11 6 - - W 1028,5 0 0,0
17.11.2017 13:00:00 7,1 2,5 13 7 - - W 1029,1 0 0,2
17.11.2017 12:00:00 3,7 3,6 2 1 - - E 1030,2 0 0,0
17.11.2017 11:00:00 2,6 2,5 4 2 - - E 1030,9 0 0,0
17.11.2017 10:00:00 0,8 0,6 4 2 - - ENE 1030,9 0 0,0
17.11.2017 09:00:00 0,0 -0,1 2 1 - - NNE 1030,7 0 0,0
17.11.2017 08:00:00 -0,8 -0,9 2 1 - - S 1031,1 0 0,0
17.11.2017 07:00:00 -1,6 -1,7 0 0 - - N 1030,5 0 0,0
17.11.2017 06:00:00 -2,2 -2,3 0 0 - - N 1030,6 0 -
17.11.2017 05:00:00 -2,4 -2,5 2 1 - - NE 1030,7 0 0,0
17.11.2017 04:00:00 -1,6 -1,7 2 1 - - NNE 1030,7 0 0,0
17.11.2017 03:00:00 -1,5 -1,6 2 1 - - NE 1030,8 0 0,0
17.11.2017 02:00:00 -1,2 -1,4 2 1 - - ENE 1030,7 0 0,0
17.11.2017 01:00:00 -0,6 -0,8 0 0 - - N 1030,4 0 0,0
17.11.2017 00:00:00 0,2 0,1 0 0 - - N 1030,2 - 0,0
16.11.2017 23:00:00 0,1 0,0 2 1 - - N 1030,2 0 0,0
16.11.2017 22:00:00 -0,1 -0,3 2 1 - - ESE 1030,0 0 0,0
16.11.2017 21:00:00 -0,3 -0,5 2 1 - - ENE 1029,3 0 0,0
16.11.2017 20:00:00 0,1 -0,5 2 1 - - NNE 1028,8 0 0,0
16.11.2017 19:00:00 1,4 0,6 2 1 - - NW 1028,2 0 0,0
16.11.2017 18:00:00 2,3 1,0 2 1 - - NW 1027,4 0 0,0
16.11.2017 17:00:00 4,2 1,6 2 1 - - WNW 1026,5 0 -
16.11.2017 16:00:00 7,0 0,4 4 2 - - NE 1025,6 42 0,0
16.11.2017 15:00:00 8,4 1,0 5 3 - - NNW 1024,7 60 0,0
16.11.2017 14:00:00 8,8 1,4 9 5 - - NW 1024,0 30 0,0
16.11.2017 13:00:00 8,4 2,6 9 5 - - NNW 1023,2 6 0,0
16.11.2017 12:00:00 8,7 5,8 5 3 - - W 1022,7 0 0,0
16.11.2017 11:00:00 9,0 6,9 5 3 - - WNW 1021,9 0 0,0
16.11.2017 10:00:00 9,9 8,4 11 6 - - WNW 1020,4 0 1,2
16.11.2017 09:00:00 10,1 9,8 18 10 - - WSW 1019,0 0 2,0
16.11.2017 08:00:00 10,0 9,2 18 10 - - WSW 1018,6 0 0,6
16.11.2017 07:00:00 10,4 8,0 22 12 - - WSW 1018,6 0 0,0
16.11.2017 06:00:00 10,2 8,5 18 10 - - WSW 1018,2 0 0,2
16.11.2017 05:00:00 9,6 8,9 13 7 - - WSW 1018,5 0 2,4

tt = temperature
td = dewpoint
ff = wind speed
fx = gusts
dd = wind direction
ppp = reduced air pressure
sd = sunshine duration
rr = precipitation

Next stations